sensor_id;sensor_type;location;lat;lon;timestamp;P1;durP1;ratioP1;P2;durP2;ratioP2
44572;SDS011;31762;45.420;10.072;2023-09-18T00:02:04;8.90;;;8.10;;
44572;SDS011;31762;45.420;10.072;2023-09-18T00:07:06;8.50;;;7.80;;
44572;SDS011;31762;45.420;10.072;2023-09-18T00:12:09;9.43;;;8.63;;
44572;SDS011;31762;45.420;10.072;2023-09-18T00:17:11;9.80;;;8.90;;
44572;SDS011;31762;45.420;10.072;2023-09-18T00:22:13;8.73;;;7.93;;
44572;SDS011;31762;45.420;10.072;2023-09-18T00:27:16;9.50;;;8.60;;
44572;SDS011;31762;45.420;10.072;2023-09-18T00:32:18;9.23;;;8.40;;
44572;SDS011;31762;45.420;10.072;2023-09-18T00:37:21;8.60;;;7.80;;
44572;SDS011;31762;45.420;10.072;2023-09-18T00:42:23;9.47;;;8.63;;
44572;SDS011;31762;45.420;10.072;2023-09-18T00:47:26;9.60;;;8.82;;
44572;SDS011;31762;45.420;10.072;2023-09-18T00:52:28;8.70;;;8.00;;
44572;SDS011;31762;45.420;10.072;2023-09-18T00:57:31;9.30;;;8.40;;
44572;SDS011;31762;45.420;10.072;2023-09-18T01:02:33;8.77;;;8.07;;
44572;SDS011;31762;45.420;10.072;2023-09-18T01:07:36;9.13;;;8.23;;
44572;SDS011;31762;45.420;10.072;2023-09-18T01:12:53;9.27;;;8.57;;
44572;SDS011;31762;45.420;10.072;2023-09-18T01:17:57;9.90;;;8.90;;
44572;SDS011;31762;45.420;10.072;2023-09-18T01:23:00;8.63;;;7.83;;
44572;SDS011;31762;45.420;10.072;2023-09-18T01:28:02;9.43;;;8.53;;
44572;SDS011;31762;45.420;10.072;2023-09-18T01:33:05;10.57;;;9.65;;
44572;SDS011;31762;45.420;10.072;2023-09-18T01:38:08;10.60;;;9.60;;
44572;SDS011;31762;45.420;10.072;2023-09-18T01:43:10;10.00;;;9.10;;
44572;SDS011;31762;45.420;10.072;2023-09-18T01:48:13;10.47;;;9.57;;
44572;SDS011;31762;45.420;10.072;2023-09-18T01:53:15;9.98;;;9.18;;
44572;SDS011;31762;45.420;10.072;2023-09-18T01:58:18;10.07;;;9.17;;
44572;SDS011;31762;45.420;10.072;2023-09-18T02:03:21;11.75;;;10.63;;
44572;SDS011;31762;45.420;10.072;2023-09-18T02:08:44;11.73;;;9.93;;
44572;SDS011;31762;45.420;10.072;2023-09-18T02:13:46;10.93;;;9.93;;
44572;SDS011;31762;45.420;10.072;2023-09-18T02:18:49;12.17;;;10.93;;
44572;SDS011;31762;45.420;10.072;2023-09-18T02:23:53;11.68;;;10.50;;
44572;SDS011;31762;45.420;10.072;2023-09-18T02:28:58;12.85;;;11.65;;
44572;SDS011;31762;45.420;10.072;2023-09-18T02:34:00;12.00;;;11.00;;
44572;SDS011;31762;45.420;10.072;2023-09-18T02:39:03;11.87;;;10.70;;
44572;SDS011;31762;45.420;10.072;2023-09-18T02:44:06;13.73;;;10.77;;
44572;SDS011;31762;45.420;10.072;2023-09-18T02:49:08;11.70;;;10.70;;
44572;SDS011;31762;45.420;10.072;2023-09-18T02:54:11;11.45;;;10.30;;
44572;SDS011;31762;45.420;10.072;2023-09-18T02:59:14;12.10;;;10.90;;
44572;SDS011;31762;45.420;10.072;2023-09-18T03:09:20;12.82;;;11.25;;
44572;SDS011;31762;45.420;10.072;2023-09-18T03:14:22;12.57;;;11.47;;
44572;SDS011;31762;45.420;10.072;2023-09-18T03:19:24;13.67;;;12.23;;
44572;SDS011;31762;45.420;10.072;2023-09-18T03:24:27;13.90;;;11.60;;
44572;SDS011;31762;45.420;10.072;2023-09-18T03:29:29;10.40;;;9.50;;
44572;SDS011;31762;45.420;10.072;2023-09-18T03:34:31;12.23;;;9.87;;
44572;SDS011;31762;45.420;10.072;2023-09-18T03:39:34;10.93;;;9.93;;
44572;SDS011;31762;45.420;10.072;2023-09-18T03:44:36;10.93;;;9.93;;
44572;SDS011;31762;45.420;10.072;2023-09-18T03:49:39;10.63;;;9.63;;
44572;SDS011;31762;45.420;10.072;2023-09-18T03:54:41;12.93;;;11.73;;
44572;SDS011;31762;45.420;10.072;2023-09-18T03:59:44;11.87;;;10.70;;
44572;SDS011;31762;45.420;10.072;2023-09-18T04:04:46;12.45;;;11.40;;
44572;SDS011;31762;45.420;10.072;2023-09-18T04:09:48;12.03;;;10.83;;
44572;SDS011;31762;45.420;10.072;2023-09-18T04:14:51;14.10;;;11.97;;
44572;SDS011;31762;45.420;10.072;2023-09-18T04:19:53;12.83;;;11.53;;
44572;SDS011;31762;45.420;10.072;2023-09-18T04:24:55;11.45;;;10.48;;
44572;SDS011;31762;45.420;10.072;2023-09-18T04:29:58;12.07;;;10.03;;
44572;SDS011;31762;45.420;10.072;2023-09-18T04:35:00;10.68;;;9.77;;
44572;SDS011;31762;45.420;10.072;2023-09-18T04:40:02;11.10;;;10.10;;
44572;SDS011;31762;45.420;10.072;2023-09-18T04:45:05;11.77;;;10.52;;
44572;SDS011;31762;45.420;10.072;2023-09-18T04:50:08;12.30;;;11.27;;
44572;SDS011;31762;45.420;10.072;2023-09-18T04:55:14;14.93;;;13.63;;
44572;SDS011;31762;45.420;10.072;2023-09-18T05:00:16;13.50;;;12.17;;
44572;SDS011;31762;45.420;10.072;2023-09-18T05:05:18;14.20;;;12.90;;
44572;SDS011;31762;45.420;10.072;2023-09-18T05:10:21;13.10;;;11.73;;
44572;SDS011;31762;45.420;10.072;2023-09-18T05:15:24;12.52;;;11.27;;
44572;SDS011;31762;45.420;10.072;2023-09-18T05:20:27;11.05;;;10.05;;
44572;SDS011;31762;45.420;10.072;2023-09-18T05:25:30;10.88;;;9.95;;
44572;SDS011;31762;45.420;10.072;2023-09-18T05:30:33;11.73;;;10.80;;
44572;SDS011;31762;45.420;10.072;2023-09-18T05:35:39;12.82;;;11.55;;
44572;SDS011;31762;45.420;10.072;2023-09-18T05:40:42;14.00;;;12.80;;
44572;SDS011;31762;45.420;10.072;2023-09-18T05:45:45;15.48;;;13.93;;
44572;SDS011;31762;45.420;10.072;2023-09-18T05:50:47;8.48;;;7.63;;
44572;SDS011;31762;45.420;10.072;2023-09-18T05:55:52;14.57;;;13.10;;
44572;SDS011;31762;45.420;10.072;2023-09-18T06:00:55;14.55;;;13.15;;
44572;SDS011;31762;45.420;10.072;2023-09-18T06:05:58;14.02;;;12.35;;
44572;SDS011;31762;45.420;10.072;2023-09-18T06:11:01;13.85;;;12.57;;
44572;SDS011;31762;45.420;10.072;2023-09-18T06:16:04;15.48;;;13.95;;
44572;SDS011;31762;45.420;10.072;2023-09-18T06:21:07;14.23;;;12.93;;
44572;SDS011;31762;45.420;10.072;2023-09-18T06:26:10;14.73;;;13.35;;
44572;SDS011;31762;45.420;10.072;2023-09-18T06:31:13;15.50;;;14.10;;
44572;SDS011;31762;45.420;10.072;2023-09-18T06:36:15;16.05;;;14.65;;
44572;SDS011;31762;45.420;10.072;2023-09-18T06:41:18;16.00;;;14.37;;
44572;SDS011;31762;45.420;10.072;2023-09-18T06:46:20;15.25;;;13.75;;
44572;SDS011;31762;45.420;10.072;2023-09-18T06:51:25;17.67;;;15.98;;
44572;SDS011;31762;45.420;10.072;2023-09-18T06:56:43;14.18;;;12.85;;
44572;SDS011;31762;45.420;10.072;2023-09-18T07:01:46;12.60;;;11.27;;
44572;SDS011;31762;45.420;10.072;2023-09-18T07:06:49;15.75;;;14.05;;
44572;SDS011;31762;45.420;10.072;2023-09-18T07:11:52;12.38;;;11.15;;
44572;SDS011;31762;45.420;10.072;2023-09-18T07:16:55;14.18;;;11.10;;
44572;SDS011;31762;45.420;10.072;2023-09-18T07:21:58;12.40;;;11.10;;
44572;SDS011;31762;45.420;10.072;2023-09-18T07:27:00;12.18;;;10.95;;
44572;SDS011;31762;45.420;10.072;2023-09-18T07:32:03;12.27;;;11.18;;
44572;SDS011;31762;45.420;10.072;2023-09-18T07:37:05;12.20;;;11.00;;
44572;SDS011;31762;45.420;10.072;2023-09-18T07:42:08;12.90;;;11.63;;
44572;SDS011;31762;45.420;10.072;2023-09-18T07:47:10;14.67;;;12.63;;
44572;SDS011;31762;45.420;10.072;2023-09-18T07:52:13;12.30;;;11.07;;
44572;SDS011;31762;45.420;10.072;2023-09-18T07:57:15;12.87;;;11.67;;
44572;SDS011;31762;45.420;10.072;2023-09-18T08:02:18;11.73;;;10.48;;
44572;SDS011;31762;45.420;10.072;2023-09-18T08:07:20;12.30;;;10.37;;
44572;SDS011;31762;45.420;10.072;2023-09-18T08:12:23;11.17;;;10.00;;
44572;SDS011;31762;45.420;10.072;2023-09-18T08:17:27;10.32;;;9.43;;
44572;SDS011;31762;45.420;10.072;2023-09-18T08:22:29;13.00;;;10.97;;
44572;SDS011;31762;45.420;10.072;2023-09-18T08:27:32;14.13;;;10.53;;
44572;SDS011;31762;45.420;10.072;2023-09-18T08:32:34;10.05;;;9.15;;
44572;SDS011;31762;45.420;10.072;2023-09-18T08:37:37;9.50;;;8.60;;
44572;SDS011;31762;45.420;10.072;2023-09-18T08:42:40;11.43;;;9.63;;
44572;SDS011;31762;45.420;10.072;2023-09-18T08:47:44;9.80;;;8.93;;
44572;SDS011;31762;45.420;10.072;2023-09-18T08:57:49;9.40;;;8.55;;
44572;SDS011;31762;45.420;10.072;2023-09-18T09:02:52;10.48;;;9.52;;
44572;SDS011;31762;45.420;10.072;2023-09-18T09:07:54;9.83;;;8.93;;
44572;SDS011;31762;45.420;10.072;2023-09-18T09:12:57;10.33;;;9.37;;
44572;SDS011;31762;45.420;10.072;2023-09-18T09:23:03;10.63;;;8.75;;
44572;SDS011;31762;45.420;10.072;2023-09-18T09:28:06;11.02;;;9.73;;
44572;SDS011;31762;45.420;10.072;2023-09-18T09:33:11;10.52;;;9.23;;
44572;SDS011;31762;45.420;10.072;2023-09-18T09:38:14;10.38;;;9.35;;
44572;SDS011;31762;45.420;10.072;2023-09-18T09:43:17;10.17;;;9.17;;
44572;SDS011;31762;45.420;10.072;2023-09-18T09:48:19;11.63;;;8.13;;
44572;SDS011;31762;45.420;10.072;2023-09-18T09:53:41;10.07;;;9.20;;
44572;SDS011;31762;45.420;10.072;2023-09-18T09:58:44;9.68;;;8.52;;
44572;SDS011;31762;45.420;10.072;2023-09-18T10:03:46;9.70;;;8.82;;
44572;SDS011;31762;45.420;10.072;2023-09-18T10:08:49;9.45;;;8.52;;
44572;SDS011;31762;45.420;10.072;2023-09-18T10:13:58;9.52;;;8.15;;
44572;SDS011;31762;45.420;10.072;2023-09-18T10:19:24;9.20;;;8.40;;
44572;SDS011;31762;45.420;10.072;2023-09-18T10:24:25;10.10;;;8.53;;
44572;SDS011;31762;45.420;10.072;2023-09-18T10:34:30;10.43;;;9.48;;
44572;SDS011;31762;45.420;10.072;2023-09-18T10:39:37;8.67;;;7.97;;
44572;SDS011;31762;45.420;10.072;2023-09-18T10:44:39;9.45;;;8.50;;
44572;SDS011;31762;45.420;10.072;2023-09-18T10:49:42;9.50;;;8.57;;
44572;SDS011;31762;45.420;10.072;2023-09-18T10:54:45;9.98;;;8.70;;
44572;SDS011;31762;45.420;10.072;2023-09-18T10:59:48;9.68;;;8.68;;
44572;SDS011;31762;45.420;10.072;2023-09-18T11:04:50;10.40;;;9.40;;
44572;SDS011;31762;45.420;10.072;2023-09-18T11:09:55;9.30;;;8.50;;
44572;SDS011;31762;45.420;10.072;2023-09-18T11:14:58;9.67;;;8.77;;
44572;SDS011;31762;45.420;10.072;2023-09-18T11:20:04;11.50;;;10.00;;
44572;SDS011;31762;45.420;10.072;2023-09-18T11:30:29;11.13;;;9.93;;
44572;SDS011;31762;45.420;10.072;2023-09-18T11:35:32;11.13;;;10.07;;
44572;SDS011;31762;45.420;10.072;2023-09-18T11:40:35;11.85;;;10.50;;
44572;SDS011;31762;45.420;10.072;2023-09-18T11:45:40;10.38;;;9.45;;
44572;SDS011;31762;45.420;10.072;2023-09-18T11:50:42;11.27;;;10.07;;
44572;SDS011;31762;45.420;10.072;2023-09-18T11:55:45;13.68;;;10.27;;
44572;SDS011;31762;45.420;10.072;2023-09-18T12:00:48;11.45;;;10.30;;
44572;SDS011;31762;45.420;10.072;2023-09-18T12:05:54;10.52;;;9.63;;
44572;SDS011;31762;45.420;10.072;2023-09-18T12:10:57;11.48;;;10.38;;
44572;SDS011;31762;45.420;10.072;2023-09-18T12:21:05;11.15;;;9.52;;
44572;SDS011;31762;45.420;10.072;2023-09-18T12:26:07;13.73;;;10.02;;
44572;SDS011;31762;45.420;10.072;2023-09-18T12:31:13;11.57;;;9.85;;
44572;SDS011;31762;45.420;10.072;2023-09-18T12:36:19;11.00;;;10.00;;
44572;SDS011;31762;45.420;10.072;2023-09-18T12:41:21;11.60;;;10.43;;
44572;SDS011;31762;45.420;10.072;2023-09-18T12:46:24;11.75;;;9.90;;
44572;SDS011;31762;45.420;10.072;2023-09-18T12:51:29;11.37;;;10.13;;
44572;SDS011;31762;45.420;10.072;2023-09-18T12:56:32;13.73;;;10.70;;
44572;SDS011;31762;45.420;10.072;2023-09-18T13:01:34;12.47;;;11.10;;
44572;SDS011;31762;45.420;10.072;2023-09-18T13:06:36;13.57;;;11.63;;
44572;SDS011;31762;45.420;10.072;2023-09-18T13:11:51;18.17;;;10.33;;
44572;SDS011;31762;45.420;10.072;2023-09-18T13:16:59;11.52;;;10.48;;
44572;SDS011;31762;45.420;10.072;2023-09-18T13:22:02;11.55;;;10.40;;
44572;SDS011;31762;45.420;10.072;2023-09-18T13:27:04;12.43;;;11.20;;
44572;SDS011;31762;45.420;10.072;2023-09-18T13:32:06;11.60;;;10.40;;
44572;SDS011;31762;45.420;10.072;2023-09-18T13:37:09;12.40;;;11.17;;
44572;SDS011;31762;45.420;10.072;2023-09-18T13:42:11;15.18;;;11.00;;
44572;SDS011;31762;45.420;10.072;2023-09-18T13:47:13;12.73;;;10.83;;
44572;SDS011;31762;45.420;10.072;2023-09-18T13:52:15;12.50;;;11.20;;
44572;SDS011;31762;45.420;10.072;2023-09-18T13:57:18;14.00;;;11.50;;
44572;SDS011;31762;45.420;10.072;2023-09-18T14:02:20;15.05;;;11.82;;
44572;SDS011;31762;45.420;10.072;2023-09-18T14:07:22;10.63;;;9.52;;
44572;SDS011;31762;45.420;10.072;2023-09-18T14:12:25;13.32;;;12.07;;
44572;SDS011;31762;45.420;10.072;2023-09-18T14:17:27;14.70;;;11.50;;
44572;SDS011;31762;45.420;10.072;2023-09-18T14:22:30;12.87;;;11.63;;
44572;SDS011;31762;45.420;10.072;2023-09-18T14:27:32;12.67;;;11.37;;
44572;SDS011;31762;45.420;10.072;2023-09-18T14:32:35;13.97;;;12.57;;
44572;SDS011;31762;45.420;10.072;2023-09-18T14:37:39;12.75;;;11.40;;
44572;SDS011;31762;45.420;10.072;2023-09-18T14:42:41;13.43;;;12.25;;
44572;SDS011;31762;45.420;10.072;2023-09-18T14:47:43;12.88;;;11.60;;
44572;SDS011;31762;45.420;10.072;2023-09-18T14:52:45;13.82;;;12.50;;
44572;SDS011;31762;45.420;10.072;2023-09-18T14:57:48;13.50;;;12.20;;
44572;SDS011;31762;45.420;10.072;2023-09-18T15:02:55;11.85;;;10.82;;
44572;SDS011;31762;45.420;10.072;2023-09-18T15:07:57;13.57;;;11.70;;
44572;SDS011;31762;45.420;10.072;2023-09-18T15:13:00;13.57;;;12.38;;
44572;SDS011;31762;45.420;10.072;2023-09-18T15:18:02;14.60;;;11.87;;
44572;SDS011;31762;45.420;10.072;2023-09-18T15:23:04;14.47;;;13.03;;
44572;SDS011;31762;45.420;10.072;2023-09-18T15:28:07;13.90;;;12.70;;
44572;SDS011;31762;45.420;10.072;2023-09-18T15:33:09;13.33;;;11.97;;
44572;SDS011;31762;45.420;10.072;2023-09-18T15:38:11;13.00;;;11.80;;
44572;SDS011;31762;45.420;10.072;2023-09-18T15:43:14;14.50;;;11.48;;
44572;SDS011;31762;45.420;10.072;2023-09-18T15:48:16;15.67;;;11.57;;
44572;SDS011;31762;45.420;10.072;2023-09-18T15:53:19;12.90;;;11.73;;
44572;SDS011;31762;45.420;10.072;2023-09-18T15:58:21;13.90;;;11.65;;
44572;SDS011;31762;45.420;10.072;2023-09-18T16:03:24;12.47;;;11.20;;
44572;SDS011;31762;45.420;10.072;2023-09-18T16:08:26;16.00;;;11.75;;
44572;SDS011;31762;45.420;10.072;2023-09-18T16:13:29;14.20;;;12.83;;
44572;SDS011;31762;45.420;10.072;2023-09-18T16:18:31;14.23;;;11.50;;
44572;SDS011;31762;45.420;10.072;2023-09-18T16:23:34;14.85;;;13.05;;
44572;SDS011;31762;45.420;10.072;2023-09-18T16:28:36;17.00;;;13.05;;
44572;SDS011;31762;45.420;10.072;2023-09-18T16:33:39;15.30;;;11.73;;
44572;SDS011;31762;45.420;10.072;2023-09-18T16:38:42;15.85;;;13.75;;
44572;SDS011;31762;45.420;10.072;2023-09-18T16:43:44;15.40;;;12.60;;
44572;SDS011;31762;45.420;10.072;2023-09-18T16:48:46;14.67;;;12.57;;
44572;SDS011;31762;45.420;10.072;2023-09-18T16:53:49;14.38;;;11.20;;
44572;SDS011;31762;45.420;10.072;2023-09-18T16:58:52;20.02;;;12.05;;
44572;SDS011;31762;45.420;10.072;2023-09-18T17:03:55;13.23;;;11.50;;
44572;SDS011;31762;45.420;10.072;2023-09-18T17:08:57;11.38;;;10.20;;
44572;SDS011;31762;45.420;10.072;2023-09-18T17:14:07;13.93;;;10.60;;
44572;SDS011;31762;45.420;10.072;2023-09-18T17:19:28;14.80;;;9.98;;
44572;SDS011;31762;45.420;10.072;2023-09-18T17:25:19;11.93;;;9.40;;
44572;SDS011;31762;45.420;10.072;2023-09-18T18:31:06;9.83;;;6.20;;
44572;SDS011;31762;45.420;10.072;2023-09-18T18:36:09;8.83;;;6.07;;
44572;SDS011;31762;45.420;10.072;2023-09-18T18:41:11;10.30;;;5.57;;
44572;SDS011;31762;45.420;10.072;2023-09-18T18:46:13;9.73;;;5.80;;
44572;SDS011;31762;45.420;10.072;2023-09-18T18:51:16;7.90;;;5.03;;
44572;SDS011;31762;45.420;10.072;2023-09-18T18:56:20;12.52;;;5.03;;
44572;SDS011;31762;45.420;10.072;2023-09-18T19:01:22;10.77;;;5.50;;
44572;SDS011;31762;45.420;10.072;2023-09-18T19:06:25;7.95;;;4.30;;
44572;SDS011;31762;45.420;10.072;2023-09-18T19:11:27;10.53;;;5.37;;
44572;SDS011;31762;45.420;10.072;2023-09-18T19:16:29;6.83;;;4.40;;
44572;SDS011;31762;45.420;10.072;2023-09-18T19:21:32;9.70;;;4.90;;
44572;SDS011;31762;45.420;10.072;2023-09-18T19:26:34;5.50;;;3.83;;
44572;SDS011;31762;45.420;10.072;2023-09-18T19:31:36;5.40;;;4.13;;
44572;SDS011;31762;45.420;10.072;2023-09-18T19:36:39;5.30;;;3.60;;
44572;SDS011;31762;45.420;10.072;2023-09-18T19:41:41;5.15;;;2.80;;
44572;SDS011;31762;45.420;10.072;2023-09-18T19:46:43;4.03;;;3.27;;
44572;SDS011;31762;45.420;10.072;2023-09-18T19:51:46;4.73;;;3.10;;
44572;SDS011;31762;45.420;10.072;2023-09-18T19:56:48;6.60;;;3.67;;
44572;SDS011;31762;45.420;10.072;2023-09-18T20:01:50;4.23;;;3.20;;
44572;SDS011;31762;45.420;10.072;2023-09-18T20:06:53;7.50;;;3.30;;
44572;SDS011;31762;45.420;10.072;2023-09-18T20:11:55;5.00;;;3.75;;
44572;SDS011;31762;45.420;10.072;2023-09-18T20:16:57;7.00;;;3.00;;
44572;SDS011;31762;45.420;10.072;2023-09-18T20:22:00;4.03;;;3.13;;
44572;SDS011;31762;45.420;10.072;2023-09-18T20:27:02;4.15;;;2.80;;
44572;SDS011;31762;45.420;10.072;2023-09-18T20:32:04;3.97;;;2.83;;
